createdAt,value
2022-12-01T00:01:34.774Z,6.06
2022-12-01T00:04:43.434Z,5.96
2022-12-01T00:07:57.718Z,5.90
2022-12-01T00:11:10.126Z,5.83
2022-12-01T00:14:24.690Z,5.81
2022-12-01T00:17:35.669Z,5.77
2022-12-01T00:20:50.709Z,5.75
2022-12-01T00:23:55.544Z,5.68
2022-12-01T00:27:10.662Z,5.68
2022-12-01T00:30:27.751Z,5.65
2022-12-01T00:33:29.691Z,5.63
2022-12-01T00:36:44.753Z,5.63
2022-12-01T00:39:53.405Z,5.60
2022-12-01T00:43:07.722Z,5.57
2022-12-01T00:46:16.849Z,5.57
2022-12-01T00:49:25.393Z,5.56
2022-12-01T00:52:44.697Z,5.42
2022-12-01T00:55:53.598Z,5.41
2022-12-01T00:59:01.702Z,5.36
2022-12-01T01:02:10.452Z,5.30
2022-12-01T01:05:18.734Z,5.27
2022-12-01T01:08:27.393Z,5.25
2022-12-01T01:11:35.789Z,5.17
2022-12-01T01:14:50.716Z,5.11
2022-12-01T01:17:52.574Z,5.03
2022-12-01T01:21:10.823Z,5.02
2022-12-01T01:24:20.238Z,4.98
2022-12-01T01:27:35.729Z,4.94
2022-12-01T01:30:50.804Z,4.92
2022-12-01T01:34:06.758Z,4.82
2022-12-01T01:37:21.761Z,4.78
2022-12-01T01:40:30.530Z,4.79
2022-12-01T01:43:50.729Z,4.72
2022-12-01T01:46:59.390Z,4.64
2022-12-01T01:50:18.714Z,4.56
2022-12-01T01:53:34.774Z,4.44
2022-12-01T01:56:45.840Z,4.48
2022-12-01T02:00:00.818Z,4.47
2022-12-01T02:03:12.935Z,4.41
2022-12-01T02:06:29.790Z,4.40
2022-12-01T02:09:37.751Z,4.34
2022-12-01T02:13:17.754Z,4.29
2022-12-01T02:16:36.673Z,4.25
2022-12-01T02:20:15.799Z,4.05
2022-12-01T02:23:41.177Z,4.11
2022-12-01T02:27:03.760Z,4.22
2022-12-01T02:30:39.004Z,4.25
2022-12-01T02:33:57.793Z,4.31
2022-12-01T02:37:18.719Z,4.32
2022-12-01T02:40:33.875Z,4.33
2022-12-01T02:43:59.716Z,4.32
2022-12-01T02:47:13.774Z,4.30
2022-12-01T02:50:22.739Z,4.32
2022-12-01T02:53:31.346Z,4.35
2022-12-01T02:56:45.781Z,4.36
2022-12-01T02:59:55.510Z,4.39
2022-12-01T03:03:38.762Z,4.36
2022-12-01T03:07:30.796Z,4.38
2022-12-01T03:10:53.414Z,4.36
2022-12-01T03:14:15.722Z,4.24
2022-12-01T03:17:30.889Z,4.23
2022-12-01T03:20:54.823Z,4.31
2022-12-01T03:24:16.702Z,4.34
2022-12-01T03:27:25.646Z,4.30
2022-12-01T03:30:43.744Z,4.37
2022-12-01T03:33:52.282Z,4.39
2022-12-01T03:37:13.782Z,4.40
2022-12-01T03:40:20.026Z,4.41
2022-12-01T03:43:40.768Z,4.43
2022-12-01T03:46:59.894Z,4.45
2022-12-01T03:50:17.838Z,4.34
2022-12-01T03:53:31.742Z,4.41
2022-12-01T03:56:48.011Z,4.44
2022-12-01T03:59:56.801Z,4.44
2022-12-01T04:03:12.814Z,4.44
2022-12-01T04:06:15.696Z,4.45
2022-12-01T04:09:30.858Z,4.43
2022-12-01T04:12:33.360Z,4.37
2022-12-01T04:15:47.911Z,4.36
2022-12-01T04:18:56.422Z,4.33
2022-12-01T04:22:04.833Z,4.24
2022-12-01T04:25:19.779Z,4.20
2022-12-01T04:28:34.765Z,4.19
2022-12-01T04:31:49.901Z,4.18
2022-12-01T04:34:58.834Z,4.14
2022-12-01T04:38:13.815Z,4.20
2022-12-01T04:41:15.762Z,4.07
2022-12-01T04:44:34.820Z,4.09
2022-12-01T04:47:37.139Z,4.07
2022-12-01T04:50:51.841Z,4.09
2022-12-01T04:53:53.597Z,4.01
2022-12-01T04:57:08.870Z,4.02
2022-12-01T05:00:11.647Z,4.01
2022-12-01T05:03:26.805Z,3.96
2022-12-01T05:06:29.375Z,3.95
2022-12-01T05:09:43.791Z,3.92
2022-12-01T05:12:52.794Z,3.95
2022-12-01T05:16:13.000Z,3.92
2022-12-01T05:19:21.817Z,3.91
2022-12-01T05:23:04.449Z,3.88
2022-12-01T05:26:05.908Z,3.87
2022-12-01T05:29:21.235Z,3.86
2022-12-01T05:32:29.767Z,3.86
2022-12-01T05:35:44.839Z,3.91
2022-12-01T05:38:46.683Z,3.88
2022-12-01T05:42:02.868Z,3.84
2022-12-01T05:45:05.066Z,3.85
2022-12-01T05:48:19.815Z,3.79
2022-12-01T05:51:21.927Z,3.74
2022-12-01T05:54:36.813Z,3.79
2022-12-01T05:57:38.780Z,3.76
2022-12-01T06:00:53.800Z,3.73
2022-12-01T06:04:03.074Z,3.71
2022-12-01T06:07:11.476Z,3.65
2022-12-01T06:10:20.859Z,3.63
2022-12-01T06:13:29.403Z,3.61
2022-12-01T06:16:37.886Z,3.60
2022-12-01T06:19:46.881Z,3.60
2022-12-01T06:22:55.835Z,3.61
2022-12-01T06:26:10.830Z,3.56
2022-12-01T06:29:18.869Z,3.52
2022-12-01T06:32:33.843Z,3.60
2022-12-01T06:35:42.870Z,3.63
2022-12-01T06:38:57.833Z,3.72
2022-12-01T06:42:05.887Z,3.81
2022-12-01T06:45:20.871Z,3.72
2022-12-01T06:48:22.731Z,3.81
2022-12-01T06:51:37.902Z,3.82
2022-12-01T06:54:39.867Z,3.91
2022-12-01T06:57:54.949Z,4.00
2022-12-01T07:00:57.257Z,3.97
2022-12-01T07:04:12.830Z,3.99
2022-12-01T07:07:16.705Z,3.89
2022-12-01T07:10:31.886Z,3.98
2022-12-01T07:13:35.221Z,4.02
2022-12-01T07:16:50.146Z,4.01
2022-12-01T07:19:52.138Z,5.93
2022-12-01T07:23:06.890Z,7.47
2022-12-01T07:26:18.874Z,10.28
2022-12-01T07:29:37.115Z,10.93
2022-12-01T07:32:52.930Z,10.79
2022-12-01T07:36:01.627Z,10.17
2022-12-01T07:39:12.935Z,10.52
2022-12-01T07:42:29.946Z,8.63
2022-12-01T07:45:31.858Z,10.80
2022-12-01T07:48:59.923Z,10.96
2022-12-01T07:52:02.965Z,12.19
2022-12-01T07:55:18.950Z,10.19
2022-12-01T07:58:21.007Z,9.83
2022-12-01T08:01:39.158Z,9.25
2022-12-01T08:04:50.571Z,8.48
2022-12-01T08:08:00.964Z,10.21
2022-12-01T08:11:14.888Z,10.66
2022-12-01T08:14:23.930Z,9.48
2022-12-01T08:17:39.065Z,9.34
2022-12-01T08:20:48.130Z,9.76
2022-12-01T08:24:01.971Z,9.22
2022-12-01T08:27:17.273Z,8.89
2022-12-01T08:30:25.937Z,8.26
2022-12-01T08:33:41.043Z,7.88
2022-12-01T08:36:49.638Z,7.51
2022-12-01T08:40:21.033Z,7.52
2022-12-01T08:43:49.510Z,8.78
2022-12-01T08:47:14.399Z,8.15
2022-12-01T08:50:35.120Z,9.13
2022-12-01T08:53:46.059Z,9.25
2022-12-01T08:57:01.943Z,9.84
2022-12-01T09:00:04.630Z,10.30
2022-12-01T09:03:18.983Z,9.16
2022-12-01T09:06:28.447Z,8.95
2022-12-01T09:09:38.019Z,9.27
2022-12-01T09:12:53.183Z,9.11
2022-12-01T09:15:57.706Z,9.61
2022-12-01T09:19:15.162Z,9.98
2022-12-01T09:22:20.257Z,9.59
2022-12-01T09:25:35.129Z,8.89
2022-12-01T09:28:54.545Z,8.87
2022-12-01T09:32:05.040Z,8.84
2022-12-01T09:35:23.351Z,9.26
2022-12-01T09:38:35.241Z,8.74
2022-12-01T09:41:57.538Z,9.18
2022-12-01T09:45:13.054Z,9.36
2022-12-01T09:48:38.136Z,8.86
2022-12-01T09:51:46.762Z,8.34
2022-12-01T09:54:56.001Z,7.76
2022-12-01T09:58:12.208Z,7.84
2022-12-01T10:01:19.809Z,8.53
2022-12-01T10:04:45.021Z,8.36
2022-12-01T10:07:59.933Z,8.08
2022-12-01T10:11:27.025Z,8.14
2022-12-01T10:14:36.532Z,8.25
2022-12-01T10:18:01.103Z,8.80
2022-12-01T10:21:23.742Z,8.56
2022-12-01T10:24:53.121Z,8.42
2022-12-01T10:28:36.168Z,8.30
2022-12-01T10:31:53.462Z,8.28
2022-12-01T10:38:26.071Z,8.36
2022-12-01T10:41:37.751Z,9.60
2022-12-01T10:44:47.074Z,9.80
2022-12-01T10:48:10.974Z,9.82
2022-12-01T10:51:27.157Z,9.54
2022-12-01T10:54:45.111Z,8.81
2022-12-01T10:57:57.237Z,8.51
2022-12-01T11:01:13.432Z,8.44
2022-12-01T11:04:43.314Z,8.28
2022-12-01T11:07:55.625Z,8.41
2022-12-01T11:11:11.285Z,8.12
2022-12-01T11:14:25.751Z,8.65
2022-12-01T11:17:50.113Z,9.24
2022-12-01T11:21:22.249Z,9.21
2022-12-01T11:24:47.172Z,9.06
2022-12-01T11:28:11.374Z,8.95
2022-12-01T11:31:37.867Z,8.82
2022-12-01T11:34:46.121Z,9.10
2022-12-01T11:38:28.973Z,9.07
2022-12-01T11:41:37.848Z,8.95
2022-12-01T11:45:07.126Z,8.93
2022-12-01T11:48:35.343Z,9.35
2022-12-01T11:51:44.404Z,8.89
2022-12-01T11:55:10.121Z,9.44
2022-12-01T11:58:21.027Z,9.46
2022-12-01T12:01:57.549Z,9.30
2022-12-01T12:05:37.505Z,8.88
2022-12-01T12:09:09.508Z,9.26
2022-12-01T12:12:33.118Z,9.21
2022-12-01T12:16:14.749Z,9.11
2022-12-01T12:20:00.381Z,9.15
2022-12-01T12:23:44.278Z,10.83
2022-12-01T12:27:05.962Z,10.36
2022-12-01T12:30:28.448Z,12.30
2022-12-01T12:33:49.241Z,11.66
2022-12-01T12:37:29.136Z,10.99
2022-12-01T12:40:52.450Z,10.49
2022-12-01T12:44:21.385Z,10.13
2022-12-01T12:48:03.207Z,10.48
2022-12-01T12:51:19.545Z,10.17
2022-12-01T12:54:51.256Z,10.23
2022-12-01T12:58:11.298Z,10.03
2022-12-01T13:01:34.465Z,9.69
2022-12-01T13:04:45.552Z,9.69
2022-12-01T13:08:08.453Z,9.88
2022-12-01T13:11:25.210Z,10.74
2022-12-01T13:14:50.206Z,10.61
2022-12-01T13:18:01.496Z,11.16
2022-12-01T13:21:24.318Z,11.63
2022-12-01T13:24:36.218Z,10.82
2022-12-01T13:27:59.208Z,10.33
2022-12-01T13:31:14.390Z,9.92
2022-12-01T13:34:37.249Z,9.30
2022-12-01T13:37:46.017Z,8.95
2022-12-01T13:40:55.198Z,8.86
2022-12-01T13:44:19.802Z,8.74
2022-12-01T13:47:47.194Z,8.81
2022-12-01T13:51:05.352Z,8.46
2022-12-01T13:54:29.163Z,8.40
2022-12-01T13:57:41.253Z,8.26
2022-12-01T14:00:50.192Z,8.24
2022-12-01T14:04:34.255Z,8.08
2022-12-01T14:07:50.241Z,8.11
2022-12-01T14:10:57.057Z,8.05
2022-12-01T14:14:26.251Z,8.04
2022-12-01T14:17:44.227Z,8.05
2022-12-01T14:20:48.267Z,8.15
2022-12-01T14:24:09.350Z,8.16
2022-12-01T14:27:11.594Z,8.14
2022-12-01T14:31:03.557Z,8.10
2022-12-01T14:34:18.781Z,8.17
2022-12-01T14:37:42.468Z,8.08
2022-12-01T14:40:52.562Z,8.10
2022-12-01T14:44:18.389Z,8.05
2022-12-01T14:47:37.478Z,8.03
2022-12-01T14:50:52.340Z,7.93
2022-12-01T14:54:14.349Z,8.03
2022-12-01T14:57:28.282Z,7.92
2022-12-01T15:00:38.240Z,7.86
2022-12-01T15:03:57.279Z,7.87
2022-12-01T15:07:05.257Z,7.86
2022-12-01T15:10:39.242Z,7.83
2022-12-01T15:13:59.347Z,7.84
2022-12-01T15:17:14.491Z,7.88
2022-12-01T15:20:31.777Z,7.96
2022-12-01T15:24:06.294Z,8.00
2022-12-01T15:27:28.032Z,7.86
2022-12-01T15:30:54.318Z,7.81
2022-12-01T15:33:56.583Z,8.03
2022-12-01T15:37:16.535Z,7.84
2022-12-01T15:44:05.318Z,7.81
2022-12-01T15:47:33.339Z,7.71
2022-12-01T15:50:48.895Z,7.57
2022-12-01T15:54:02.381Z,7.44
2022-12-01T15:57:17.571Z,7.40
2022-12-01T16:00:27.582Z,7.43
2022-12-01T16:03:58.319Z,7.48
2022-12-01T16:07:09.853Z,7.53
2022-12-01T16:10:37.436Z,7.58
2022-12-01T16:13:55.714Z,8.01
2022-12-01T16:16:58.877Z,8.03
2022-12-01T16:20:25.358Z,7.76
2022-12-01T16:23:34.943Z,7.54
2022-12-01T16:26:55.344Z,7.52
2022-12-01T16:30:07.633Z,7.39
2022-12-01T16:33:27.358Z,7.37
2022-12-01T16:36:36.002Z,7.37
2022-12-01T16:39:45.371Z,7.35
2022-12-01T16:42:54.134Z,7.14
2022-12-01T16:46:13.443Z,7.50
2022-12-01T16:49:29.341Z,7.64
2022-12-01T16:52:45.917Z,7.70
2022-12-01T16:56:05.360Z,7.61
2022-12-01T16:59:15.173Z,7.47
2022-12-01T17:02:23.571Z,7.59
2022-12-01T17:05:32.574Z,7.70
2022-12-01T17:08:41.383Z,7.72
2022-12-01T17:11:50.307Z,7.77
2022-12-01T17:14:58.406Z,7.75
2022-12-01T17:18:06.986Z,7.69
2022-12-01T17:21:17.454Z,7.64
2022-12-01T17:24:26.042Z,7.64
2022-12-01T17:27:36.422Z,7.57
2022-12-01T17:30:51.796Z,7.59
2022-12-01T17:34:00.489Z,7.63
2022-12-01T17:37:20.706Z,7.64
2022-12-01T17:40:29.284Z,7.64
2022-12-01T17:43:45.448Z,7.50
2022-12-01T17:47:00.385Z,7.42
2022-12-01T17:50:02.253Z,7.53
2022-12-01T17:53:17.430Z,7.54
2022-12-01T17:56:25.414Z,7.56
2022-12-01T17:59:42.460Z,7.48
2022-12-01T18:02:44.258Z,7.41
2022-12-01T18:06:03.542Z,7.37
2022-12-01T18:09:12.418Z,7.31
2022-12-01T18:12:21.011Z,7.07
2022-12-01T18:15:34.676Z,7.12
2022-12-01T18:18:50.486Z,7.25
2022-12-01T18:21:52.272Z,7.27
2022-12-01T18:25:07.409Z,7.28
2022-12-01T18:28:09.251Z,7.19
2022-12-01T18:31:31.473Z,7.22
2022-12-01T18:34:43.454Z,7.19
2022-12-01T18:37:52.306Z,7.20
2022-12-01T18:41:05.590Z,7.22
2022-12-01T18:44:14.078Z,7.10
2022-12-01T18:47:22.422Z,7.04
2022-12-01T18:50:37.442Z,7.00
2022-12-01T18:53:46.521Z,7.02
2022-12-01T18:56:58.494Z,6.96
2022-12-01T19:00:07.846Z,6.95
2022-12-01T19:03:22.518Z,6.99
2022-12-01T19:06:25.863Z,6.92
2022-12-01T19:09:40.686Z,6.99
2022-12-01T19:12:50.110Z,6.84
2022-12-01T19:15:58.580Z,7.00
2022-12-01T19:19:07.252Z,7.11
2022-12-01T19:22:15.493Z,7.13
2022-12-01T19:25:24.019Z,7.12
2022-12-01T19:28:42.601Z,7.16
2022-12-01T19:31:50.855Z,7.15
2022-12-01T19:35:05.477Z,7.06
2022-12-01T19:38:20.511Z,7.05
2022-12-01T19:41:29.366Z,7.07
2022-12-01T19:44:38.519Z,7.08
2022-12-01T19:47:47.151Z,7.12
2022-12-01T19:50:55.543Z,7.05
2022-12-01T19:54:12.519Z,7.08
2022-12-01T19:57:21.346Z,7.06
2022-12-01T20:00:29.499Z,6.98
2022-12-01T20:03:38.810Z,6.96
2022-12-01T20:06:53.547Z,6.80
2022-12-01T20:09:55.622Z,6.76
2022-12-01T20:13:10.592Z,6.80
2022-12-01T20:16:15.384Z,6.79
2022-12-01T20:19:31.437Z,6.80
2022-12-01T20:22:34.474Z,6.70
2022-12-01T20:25:49.529Z,6.62
2022-12-01T20:29:09.556Z,6.65
2022-12-01T20:32:23.287Z,6.62
2022-12-01T20:35:32.626Z,6.57
2022-12-01T20:38:48.606Z,6.54
2022-12-01T20:41:50.663Z,6.48
2022-12-01T20:45:05.566Z,6.45
2022-12-01T20:48:14.575Z,6.30
2022-12-01T20:51:29.559Z,6.28
2022-12-01T20:54:31.449Z,6.19
2022-12-01T20:57:46.554Z,6.23
2022-12-01T21:00:49.008Z,6.21
2022-12-01T21:04:03.610Z,6.13
2022-12-01T21:07:11.562Z,6.08
2022-12-01T21:10:27.615Z,6.02
2022-12-01T21:13:31.042Z,5.95
2022-12-01T21:16:46.976Z,5.88
2022-12-01T21:19:56.084Z,5.79
2022-12-01T21:23:22.552Z,5.81
2022-12-01T21:26:32.566Z,5.78
2022-12-01T21:29:55.675Z,5.81
2022-12-01T21:33:28.626Z,5.81
2022-12-01T21:36:43.620Z,5.80
2022-12-01T21:39:51.636Z,5.69
2022-12-01T21:43:22.643Z,5.71
2022-12-01T21:46:31.664Z,5.74
2022-12-01T21:49:40.301Z,5.68
2022-12-01T21:52:50.662Z,5.75
2022-12-01T21:55:59.218Z,5.65
2022-12-01T21:59:22.664Z,5.61
2022-12-01T22:02:55.681Z,5.67
2022-12-01T22:06:30.108Z,5.74
2022-12-01T22:09:42.613Z,5.70
2022-12-01T22:12:51.323Z,5.76
2022-12-01T22:16:00.690Z,5.87
2022-12-01T22:19:36.886Z,5.86
2022-12-01T22:22:46.600Z,5.90
2022-12-01T22:25:55.217Z,5.91
2022-12-01T22:29:05.622Z,5.88
2022-12-01T22:32:55.650Z,5.82
2022-12-01T22:36:24.978Z,5.81
2022-12-01T22:39:37.744Z,5.82
2022-12-01T22:42:46.230Z,5.79
2022-12-01T22:46:14.700Z,5.76
2022-12-01T22:49:29.692Z,5.79
2022-12-01T22:52:31.779Z,5.77
2022-12-01T22:55:46.688Z,5.74
2022-12-01T22:58:54.645Z,5.75
2022-12-01T23:02:20.965Z,5.74
2022-12-01T23:05:33.654Z,5.66
2022-12-01T23:08:42.372Z,5.52
2022-12-01T23:11:55.674Z,5.45
2022-12-01T23:15:41.752Z,5.37
2022-12-01T23:18:49.673Z,5.34
2022-12-01T23:21:58.217Z,5.28
2022-12-01T23:25:08.706Z,5.18
2022-12-01T23:28:31.653Z,5.20
2022-12-01T23:31:47.804Z,5.18
2022-12-01T23:35:02.868Z,5.12
2022-12-01T23:38:05.554Z,5.22
2022-12-01T23:41:27.677Z,5.29
2022-12-01T23:44:39.378Z,5.32
2022-12-01T23:47:54.710Z,5.26
2022-12-01T23:50:56.563Z,5.19
2022-12-01T23:54:26.802Z,5.21
2022-12-01T23:57:36.903Z,5.21
